createdAt,value
2018-11-05T00:00:47.107Z,35.75
2018-11-05T00:03:15.169Z,38.15
2018-11-05T00:05:43.213Z,34.43
2018-11-05T00:08:11.234Z,38.80
2018-11-05T00:10:39.370Z,37.05
2018-11-05T00:13:07.446Z,37.75
2018-11-05T00:15:35.538Z,42.30
2018-11-05T00:18:03.852Z,37.90
2018-11-05T00:20:31.833Z,36.28
2018-11-05T00:22:59.778Z,36.28
2018-11-05T00:25:27.681Z,36.03
2018-11-05T00:27:55.700Z,36.00
2018-11-05T00:30:23.645Z,39.00
2018-11-05T00:32:51.620Z,40.98
2018-11-05T00:35:19.594Z,34.27
2018-11-05T00:37:47.661Z,41.15
2018-11-05T00:40:16.346Z,47.00
2018-11-05T00:42:45.048Z,37.13
2018-11-05T00:45:15.292Z,40.50
2018-11-05T00:47:43.769Z,40.70
2018-11-05T00:50:13.268Z,34.03
2018-11-05T00:52:41.393Z,40.78
2018-11-05T00:55:10.316Z,39.40
2018-11-05T00:57:38.334Z,47.98
2018-11-05T01:00:11.332Z,42.95
2018-11-05T01:02:39.917Z,39.92
2018-11-05T01:05:08.991Z,45.30
2018-11-05T01:07:36.913Z,50.45
2018-11-05T01:10:05.419Z,45.67
2018-11-05T01:12:33.457Z,50.75
2018-11-05T01:15:01.512Z,46.25
2018-11-05T01:17:29.484Z,48.50
2018-11-05T01:19:57.458Z,47.62
2018-11-05T01:22:25.561Z,51.53
2018-11-05T01:24:53.529Z,48.48
2018-11-05T01:27:21.496Z,49.10
2018-11-05T01:29:49.407Z,45.10
2018-11-05T01:32:22.079Z,45.73
2018-11-05T01:34:50.018Z,44.90
2018-11-05T01:37:18.097Z,46.83
2018-11-05T01:39:46.052Z,43.40
2018-11-05T01:42:14.020Z,44.88
2018-11-05T01:44:42.171Z,50.35
2018-11-05T01:47:10.302Z,48.10
2018-11-05T01:49:38.229Z,43.63
2018-11-05T01:52:06.951Z,40.43
2018-11-05T01:54:34.891Z,46.88
2018-11-05T01:57:03.022Z,42.30
2018-11-05T01:59:30.990Z,40.50
2018-11-05T02:01:58.945Z,40.40
2018-11-05T02:04:26.914Z,37.90
2018-11-05T02:06:58.373Z,44.48
2018-11-05T02:09:26.290Z,42.48
2018-11-05T02:11:54.230Z,40.55
2018-11-05T02:14:22.152Z,40.25
2018-11-05T02:16:50.184Z,44.90
2018-11-05T02:19:18.232Z,40.52
2018-11-05T02:21:46.199Z,41.70
2018-11-05T02:24:14.162Z,40.10
2018-11-05T02:26:42.189Z,41.53
2018-11-05T02:29:10.164Z,38.10
2018-11-05T02:31:38.100Z,43.28
2018-11-05T02:34:06.110Z,41.90
2018-11-05T02:36:34.050Z,37.42
2018-11-05T02:39:02.066Z,37.80
2018-11-05T02:41:30.047Z,39.90
2018-11-05T02:43:58.107Z,45.05
2018-11-05T02:46:26.033Z,37.45
2018-11-05T02:48:54.043Z,37.93
2018-11-05T02:51:25.338Z,39.33
2018-11-05T02:53:53.296Z,40.05
2018-11-05T02:56:21.235Z,38.63
2018-11-05T02:58:49.189Z,42.15
2018-11-05T03:01:17.259Z,41.90
2018-11-05T03:03:45.240Z,39.40
2018-11-05T03:06:13.194Z,41.73
2018-11-05T03:08:41.171Z,41.45
2018-11-05T03:11:09.216Z,44.88
2018-11-05T03:13:37.143Z,44.60
2018-11-05T03:16:05.896Z,41.35
2018-11-05T03:18:33.834Z,38.67
2018-11-05T03:21:01.801Z,43.38
2018-11-05T03:23:29.783Z,37.73
2018-11-05T03:25:57.734Z,38.60
2018-11-05T03:28:25.642Z,43.38
2018-11-05T03:30:53.686Z,39.53
2018-11-05T03:33:21.662Z,38.58
2018-11-05T03:35:49.689Z,38.00
2018-11-05T03:38:17.690Z,36.68
2018-11-05T03:40:45.666Z,47.73
2018-11-05T03:43:13.605Z,36.35
2018-11-05T03:45:41.598Z,36.73
2018-11-05T03:48:09.534Z,33.98
2018-11-05T03:50:37.505Z,36.05
2018-11-05T03:53:05.675Z,36.50
2018-11-05T03:55:33.703Z,34.15
2018-11-05T03:58:01.660Z,37.95
2018-11-05T04:00:29.595Z,37.05
2018-11-05T04:02:57.572Z,33.58
2018-11-05T04:05:25.591Z,38.90
2018-11-05T04:07:53.505Z,38.75
2018-11-05T04:10:21.426Z,37.98
2018-11-05T04:12:49.481Z,34.90
2018-11-05T04:15:17.571Z,39.03
2018-11-05T04:17:45.614Z,43.45
2018-11-05T04:20:14.474Z,41.23
2018-11-05T04:22:43.372Z,34.98
2018-11-05T04:25:11.346Z,36.20
2018-11-05T04:27:39.447Z,38.95
2018-11-05T04:30:10.096Z,33.28
2018-11-05T04:32:38.106Z,36.98
2018-11-05T04:35:06.142Z,38.05
2018-11-05T04:37:34.140Z,34.85
2018-11-05T04:40:03.315Z,38.92
2018-11-05T04:42:31.336Z,38.98
2018-11-05T04:44:59.296Z,37.78
2018-11-05T04:47:27.389Z,36.23
2018-11-05T04:49:55.377Z,34.83
2018-11-05T04:52:23.373Z,34.15
2018-11-05T04:54:51.364Z,35.68
2018-11-05T04:57:19.463Z,39.25
2018-11-05T04:59:47.469Z,37.53
2018-11-05T05:02:15.415Z,39.55
2018-11-05T05:04:43.383Z,38.38
2018-11-05T05:07:14.855Z,35.00
2018-11-05T05:09:42.851Z,39.95
2018-11-05T05:12:10.799Z,44.70
2018-11-05T05:14:38.768Z,45.00
2018-11-05T05:17:08.011Z,44.13
2018-11-05T05:19:35.949Z,43.08
2018-11-05T05:22:03.936Z,40.03
2018-11-05T05:24:31.952Z,46.53
2018-11-05T05:27:03.696Z,35.90
2018-11-05T05:29:31.652Z,34.50
2018-11-05T05:31:59.604Z,35.90
2018-11-05T05:34:27.624Z,40.08
2018-11-05T05:36:55.632Z,39.13
2018-11-05T05:39:23.570Z,34.80
2018-11-05T05:41:51.469Z,37.40
2018-11-05T05:44:19.376Z,42.05
2018-11-05T05:46:47.441Z,32.70
2018-11-05T05:49:15.446Z,35.80
2018-11-05T05:51:43.467Z,35.52
2018-11-05T05:54:11.537Z,36.20
2018-11-05T05:56:39.463Z,39.58
2018-11-05T05:59:07.521Z,39.15
2018-11-05T06:01:35.545Z,36.95
2018-11-05T06:04:03.745Z,39.18
2018-11-05T06:06:31.837Z,37.98
2018-11-05T06:08:59.765Z,38.78
2018-11-05T06:11:27.738Z,38.38
2018-11-05T06:13:59.132Z,34.10
2018-11-05T06:16:27.104Z,40.30
2018-11-05T06:18:55.060Z,32.53
2018-11-05T06:21:23.027Z,36.85
2018-11-05T06:23:53.072Z,35.98
2018-11-05T06:26:21.028Z,33.05
2018-11-05T06:28:48.966Z,38.50
2018-11-05T06:31:16.927Z,40.78
2018-11-05T06:33:44.964Z,35.38
2018-11-05T06:36:12.977Z,39.00
2018-11-05T06:38:41.019Z,34.30
2018-11-05T06:41:08.994Z,42.90
2018-11-05T06:43:37.081Z,39.45
2018-11-05T06:46:05.284Z,36.13
2018-11-05T06:48:33.255Z,38.00
2018-11-05T06:51:01.171Z,36.60
2018-11-05T06:53:29.162Z,37.73
2018-11-05T06:55:57.112Z,32.78
2018-11-05T06:58:25.058Z,36.03
2018-11-05T07:00:52.978Z,41.50
2018-11-05T07:03:20.987Z,43.48
2018-11-05T07:05:48.998Z,41.70
2018-11-05T07:08:16.948Z,41.20
2018-11-05T07:10:44.996Z,41.15
2018-11-05T07:13:13.109Z,35.85
2018-11-05T07:15:41.053Z,39.13
2018-11-05T07:18:09.122Z,35.90
2018-11-05T07:20:37.026Z,40.25
2018-11-05T07:23:05.319Z,40.78
2018-11-05T07:25:33.270Z,39.45
2018-11-05T07:28:01.228Z,37.75
2018-11-05T07:30:29.209Z,41.40
2018-11-05T07:32:57.251Z,43.92
2018-11-05T07:35:25.333Z,42.60
2018-11-05T07:37:53.307Z,45.75
2018-11-05T07:40:21.325Z,40.12
2018-11-05T07:42:49.357Z,40.90
2018-11-05T07:45:18.689Z,37.88
2018-11-05T07:47:46.969Z,28.60
2018-11-05T07:50:16.477Z,32.43
2018-11-05T07:52:44.403Z,32.80
2018-11-05T07:55:14.855Z,32.03
2018-11-05T07:57:43.920Z,29.53
2018-11-05T08:00:18.699Z,27.83
2018-11-05T08:02:47.647Z,28.20
2018-11-05T08:05:16.613Z,28.10
2018-11-05T08:07:44.885Z,31.20
2018-11-05T08:10:12.910Z,29.70
2018-11-05T08:12:41.480Z,25.10
2018-11-05T08:15:12.574Z,27.67
2018-11-05T08:17:41.168Z,28.50
2018-11-05T08:20:09.468Z,28.00
2018-11-05T08:22:37.540Z,27.80
2018-11-05T08:25:05.720Z,26.77
2018-11-05T08:27:33.721Z,26.93
2018-11-05T08:30:01.761Z,26.90
2018-11-05T08:32:29.828Z,23.70
2018-11-05T08:34:57.846Z,26.80
2018-11-05T08:37:25.801Z,24.63
2018-11-05T08:39:53.776Z,26.00
2018-11-05T08:42:21.847Z,26.17
2018-11-05T08:44:49.794Z,24.87
2018-11-05T08:47:17.779Z,26.00
2018-11-05T08:49:45.716Z,26.47
2018-11-05T08:52:13.718Z,30.00
2018-11-05T08:54:41.803Z,27.53
2018-11-05T08:57:09.758Z,27.90
2018-11-05T08:59:37.737Z,24.90
2018-11-05T09:02:05.778Z,26.60
2018-11-05T09:04:33.876Z,24.03
2018-11-05T09:07:01.816Z,22.87
2018-11-05T09:09:29.858Z,26.60
2018-11-05T09:11:57.859Z,22.70
2018-11-05T09:14:25.840Z,23.40
2018-11-05T09:16:54.696Z,24.57
2018-11-05T09:19:22.700Z,22.83
2018-11-05T09:21:50.692Z,23.90
2018-11-05T09:24:18.642Z,26.70
2018-11-05T09:26:47.553Z,23.10
2018-11-05T09:29:15.614Z,24.33
2018-11-05T09:31:43.597Z,22.90
2018-11-05T09:34:11.698Z,25.27
2018-11-05T09:36:39.891Z,27.17
2018-11-05T09:39:08.555Z,27.00
2018-11-05T09:41:36.523Z,24.43
2018-11-05T09:44:04.555Z,22.43
2018-11-05T09:46:32.493Z,24.93
2018-11-05T09:49:00.413Z,22.40
2018-11-05T09:51:28.427Z,23.00
2018-11-05T09:53:56.504Z,22.40
2018-11-05T09:56:24.495Z,26.40
2018-11-05T09:58:52.510Z,26.70
2018-11-05T10:01:20.468Z,23.97
2018-11-05T10:03:51.541Z,23.70
2018-11-05T10:06:19.480Z,23.50
2018-11-05T10:08:47.461Z,22.60
2018-11-05T10:11:15.414Z,24.27
2018-11-05T10:13:43.413Z,26.40
2018-11-05T10:16:11.330Z,23.80
2018-11-05T10:18:39.288Z,27.20
2018-11-05T10:21:07.218Z,26.27
2018-11-05T10:23:35.112Z,27.37
2018-11-05T10:26:03.101Z,25.13
2018-11-05T10:28:31.056Z,25.97
2018-11-05T10:30:58.956Z,25.10
2018-11-05T10:33:26.947Z,27.73
2018-11-05T10:35:56.188Z,36.93
2018-11-05T10:38:24.437Z,25.37
2018-11-05T10:40:52.370Z,24.70
2018-11-05T10:43:20.430Z,24.90
2018-11-05T10:45:48.379Z,26.47
2018-11-05T10:48:16.354Z,26.40
2018-11-05T10:50:44.329Z,28.90
2018-11-05T10:53:12.332Z,25.97
2018-11-05T10:55:40.307Z,23.77
2018-11-05T10:58:08.424Z,29.20
2018-11-05T11:00:41.883Z,27.50
2018-11-05T11:03:15.458Z,24.47
2018-11-05T11:05:43.423Z,28.47
2018-11-05T11:08:11.564Z,31.73
2018-11-05T11:10:39.520Z,29.47
2018-11-05T11:13:07.483Z,35.00
2018-11-05T11:15:35.395Z,28.67
2018-11-05T11:18:03.389Z,31.40
2018-11-05T11:20:31.339Z,28.50
2018-11-05T11:22:59.292Z,33.50
2018-11-05T11:25:27.261Z,26.00
2018-11-05T11:27:55.333Z,27.17
2018-11-05T11:30:23.245Z,30.43
2018-11-05T11:32:52.057Z,30.33
2018-11-05T11:35:19.998Z,29.70
2018-11-05T11:37:47.947Z,24.77
2018-11-05T11:40:17.530Z,33.07
2018-11-05T11:42:46.443Z,31.30
2018-11-05T11:45:15.242Z,26.53
2018-11-05T11:47:43.235Z,30.97
2018-11-05T11:50:12.686Z,29.83
2018-11-05T11:52:40.760Z,32.00
2018-11-05T11:55:11.044Z,36.30
2018-11-05T11:57:39.297Z,31.87
2018-11-05T12:00:09.910Z,36.27
2018-11-05T12:02:37.911Z,29.83
2018-11-05T12:05:07.033Z,33.33
2018-11-05T12:07:34.927Z,31.53
2018-11-05T12:10:03.207Z,32.33
2018-11-05T12:12:31.179Z,31.60
2018-11-05T12:14:59.160Z,30.73
2018-11-05T12:17:27.081Z,34.47
2018-11-05T12:19:55.001Z,30.83
2018-11-05T12:22:22.973Z,30.63
2018-11-05T12:24:50.935Z,33.20
2018-11-05T12:27:22.039Z,33.33
2018-11-05T12:29:50.013Z,33.73
2018-11-05T12:32:17.989Z,35.40
2018-11-05T12:34:45.942Z,29.70
2018-11-05T12:37:13.926Z,32.90
2018-11-05T12:39:41.866Z,35.40
2018-11-05T12:42:09.893Z,39.50
2018-11-05T12:44:37.932Z,31.80
2018-11-05T12:47:05.826Z,33.37
2018-11-05T12:49:33.760Z,33.13
2018-11-05T12:52:05.432Z,36.57
2018-11-05T12:54:33.480Z,30.67
2018-11-05T12:57:01.420Z,35.73
2018-11-05T12:59:29.407Z,36.00
2018-11-05T13:01:57.887Z,34.70
2018-11-05T13:04:26.287Z,35.97
2018-11-05T13:06:54.633Z,35.30
2018-11-05T13:09:22.609Z,32.43
2018-11-05T13:11:50.609Z,31.97
2018-11-05T13:14:19.177Z,34.80
2018-11-05T13:16:47.190Z,29.93
2018-11-05T13:19:15.197Z,33.50
2018-11-05T13:21:43.246Z,29.10
2018-11-05T13:24:11.210Z,28.97
2018-11-05T13:26:39.236Z,34.60
2018-11-05T13:29:07.205Z,34.90
2018-11-05T13:31:35.154Z,33.10
2018-11-05T13:34:03.173Z,31.13
2018-11-05T13:36:31.225Z,30.47
2018-11-05T13:38:59.092Z,29.23
2018-11-05T13:41:27.066Z,37.20
2018-11-05T13:43:55.034Z,30.90
2018-11-05T13:46:23.450Z,34.50
2018-11-05T13:48:51.619Z,36.97
2018-11-05T13:51:18.941Z,35.87
2018-11-05T13:53:46.882Z,36.97
2018-11-05T13:56:14.827Z,36.10
2018-11-05T13:58:42.773Z,34.53
2018-11-05T14:01:10.711Z,40.97
2018-11-05T14:03:38.655Z,38.20
2018-11-05T14:06:06.734Z,35.93
2018-11-05T14:08:34.781Z,39.63
2018-11-05T14:11:02.803Z,38.60
2018-11-05T14:13:30.765Z,40.60
2018-11-05T14:15:58.759Z,38.80
2018-11-05T14:18:26.801Z,45.37
2018-11-05T14:20:54.648Z,41.00
2018-11-05T14:23:22.593Z,39.13
2018-11-05T14:25:50.674Z,40.43
2018-11-05T14:28:19.184Z,39.83
2018-11-05T14:30:47.000Z,44.13
2018-11-05T14:33:14.964Z,43.43
2018-11-05T14:35:42.912Z,37.80
2018-11-05T14:38:10.912Z,35.40
2018-11-05T14:40:38.851Z,41.77
2018-11-05T14:43:06.918Z,38.87
2018-11-05T14:45:34.908Z,37.17
2018-11-05T14:48:02.891Z,41.05
2018-11-05T14:50:30.917Z,37.00
2018-11-05T14:52:58.830Z,31.50
2018-11-05T14:55:26.773Z,35.48
2018-11-05T14:57:54.747Z,39.90
2018-11-05T15:00:25.120Z,35.50
2018-11-05T15:02:57.646Z,35.78
2018-11-05T15:05:25.606Z,36.48
2018-11-05T15:07:53.682Z,33.80
2018-11-05T15:10:22.859Z,34.25
2018-11-05T15:12:50.962Z,36.70
2018-11-05T15:15:19.542Z,36.13
2018-11-05T15:17:48.464Z,35.38
2018-11-05T15:20:18.075Z,36.15
2018-11-05T15:22:46.271Z,37.25
2018-11-05T15:25:14.715Z,35.63
2018-11-05T15:27:42.745Z,38.38
2018-11-05T15:30:12.879Z,41.35
2018-11-05T15:32:42.390Z,35.65
2018-11-05T15:35:10.539Z,35.63
2018-11-05T15:37:39.705Z,37.70
2018-11-05T15:40:08.932Z,37.83
2018-11-05T15:42:40.239Z,34.98
2018-11-05T15:45:10.122Z,32.33
2018-11-05T15:47:38.516Z,36.42
2018-11-05T15:50:08.778Z,32.17
2018-11-05T15:52:37.245Z,38.60
2018-11-05T15:55:05.111Z,34.33
2018-11-05T15:57:33.329Z,34.45
2018-11-05T16:00:01.788Z,38.85
2018-11-05T16:02:31.983Z,33.65
2018-11-05T16:04:59.988Z,38.73
2018-11-05T16:07:28.009Z,39.88
2018-11-05T16:09:55.990Z,46.80
2018-11-05T16:12:33.914Z,39.55
2018-11-05T16:15:01.987Z,32.03
2018-11-05T16:17:30.008Z,36.68
2018-11-05T16:19:58.073Z,35.45
2018-11-05T16:22:32.706Z,34.60
2018-11-05T16:25:01.097Z,40.38
2018-11-05T16:27:29.485Z,38.63
2018-11-05T16:29:58.289Z,37.70
2018-11-05T16:32:26.336Z,32.63
2018-11-05T16:34:54.736Z,36.20
2018-11-05T16:37:23.303Z,36.10
2018-11-05T16:39:54.899Z,33.33
2018-11-05T16:42:22.896Z,29.20
2018-11-05T16:44:51.506Z,34.60
2018-11-05T16:47:19.505Z,34.13
2018-11-05T16:49:49.618Z,34.95
2018-11-05T16:52:17.590Z,35.30
2018-11-05T16:54:45.612Z,36.58
2018-11-05T16:57:19.445Z,38.70
2018-11-05T16:59:47.433Z,31.65
2018-11-05T17:02:16.664Z,35.68
2018-11-05T17:04:45.823Z,36.40
2018-11-05T17:07:13.919Z,34.23
2018-11-05T17:09:41.895Z,30.25
2018-11-05T17:12:10.103Z,29.57
2018-11-05T17:14:45.583Z,31.00
2018-11-05T17:17:13.549Z,28.60
2018-11-05T17:19:41.486Z,28.20
2018-11-05T17:22:09.511Z,27.60
2018-11-05T17:24:47.545Z,32.45
2018-11-05T17:27:15.541Z,41.60
2018-11-05T17:29:43.570Z,31.52
2018-11-05T17:32:16.471Z,35.60
2018-11-05T17:34:44.402Z,36.90
2018-11-05T17:37:12.455Z,38.15
2018-11-05T17:39:40.646Z,35.20
2018-11-05T17:42:27.154Z,32.40
2018-11-05T17:44:55.141Z,46.92
2018-11-05T17:47:23.201Z,36.23
2018-11-05T17:49:51.246Z,34.65
2018-11-05T17:52:32.194Z,35.78
2018-11-05T17:55:00.220Z,31.23
2018-11-05T17:57:28.179Z,35.65
2018-11-05T17:59:56.182Z,41.95
2018-11-05T18:02:25.613Z,38.08
2018-11-05T18:04:55.661Z,34.83
2018-11-05T18:07:24.331Z,33.08
2018-11-05T18:09:54.687Z,34.50
2018-11-05T18:12:23.436Z,37.58
2018-11-05T18:14:53.631Z,30.37
2018-11-05T18:17:21.918Z,41.70
2018-11-05T18:19:49.939Z,37.63
2018-11-05T18:22:17.891Z,36.58
2018-11-05T18:24:45.864Z,36.33
2018-11-05T18:27:13.940Z,33.80
2018-11-05T18:29:42.006Z,36.38
2018-11-05T18:32:14.448Z,34.92
2018-11-05T18:34:43.460Z,37.23
2018-11-05T18:37:11.504Z,55.83
2018-11-05T18:39:39.562Z,38.45
2018-11-05T18:42:07.814Z,29.32
2018-11-05T18:44:35.890Z,35.28
2018-11-05T18:47:03.945Z,29.75
2018-11-05T18:49:33.136Z,33.63
2018-11-05T18:52:01.137Z,36.17
2018-11-05T18:54:29.230Z,35.15
2018-11-05T18:56:57.533Z,32.28
2018-11-05T18:59:27.181Z,38.05
2018-11-05T19:01:55.254Z,31.37
2018-11-05T19:04:23.479Z,34.92
2018-11-05T19:06:52.531Z,35.83
2018-11-05T19:09:20.563Z,45.38
2018-11-05T19:11:49.458Z,38.63
2018-11-05T19:14:18.244Z,35.92
2018-11-05T19:16:46.315Z,36.93
2018-11-05T19:19:14.427Z,35.20
2018-11-05T19:21:42.596Z,33.90
2018-11-05T19:24:10.758Z,33.00
2018-11-05T19:26:38.756Z,31.48
2018-11-05T19:29:07.518Z,31.60
2018-11-05T19:31:35.538Z,32.33
2018-11-05T19:34:03.703Z,36.40
2018-11-05T19:36:31.602Z,38.23
2018-11-05T19:38:59.576Z,33.10
2018-11-05T19:41:27.676Z,34.63
2018-11-05T19:43:55.605Z,39.18
2018-11-05T19:46:23.585Z,34.10
2018-11-05T19:48:53.802Z,37.60
2018-11-05T19:51:21.933Z,35.30
2018-11-05T19:53:50.106Z,36.58
2018-11-05T19:56:18.376Z,34.60
2018-11-05T19:58:46.847Z,35.05
2018-11-05T20:01:14.915Z,36.77
2018-11-05T20:03:42.917Z,33.33
2018-11-05T20:06:11.328Z,32.83
2018-11-05T20:08:39.269Z,35.35
2018-11-05T20:11:07.720Z,34.98
2018-11-05T20:13:35.751Z,33.53
2018-11-05T20:16:04.093Z,40.90
2018-11-05T20:18:33.014Z,36.40
2018-11-05T20:21:00.942Z,29.27
2018-11-05T20:23:28.908Z,34.10
2018-11-05T20:25:57.081Z,33.85
2018-11-05T20:28:25.283Z,31.87
2018-11-05T20:30:53.258Z,31.07
2018-11-05T20:33:21.627Z,31.40
2018-11-05T20:35:49.614Z,33.45
2018-11-05T20:38:17.750Z,36.80
2018-11-05T20:40:45.876Z,37.55
2018-11-05T20:43:17.762Z,32.85
2018-11-05T20:45:45.773Z,35.33
2018-11-05T20:48:13.761Z,36.70
2018-11-05T20:50:41.804Z,32.63
2018-11-05T20:53:09.927Z,30.72
2018-11-05T20:55:38.088Z,34.85
2018-11-05T20:58:06.465Z,35.13
2018-11-05T21:00:35.249Z,37.25
2018-11-05T21:03:03.305Z,30.75
2018-11-05T21:05:31.335Z,35.75
2018-11-05T21:07:59.406Z,30.12
2018-11-05T21:10:27.429Z,32.38
2018-11-05T21:12:55.503Z,34.33
2018-11-05T21:15:23.522Z,32.33
2018-11-05T21:17:52.701Z,27.75
2018-11-05T21:20:20.989Z,30.68
2018-11-05T21:22:49.777Z,31.42
2018-11-05T21:25:17.742Z,31.73
2018-11-05T21:27:45.960Z,32.93
2018-11-05T21:30:16.317Z,30.88
2018-11-05T21:32:44.293Z,30.62
2018-11-05T21:35:14.050Z,33.78
2018-11-05T21:37:42.468Z,34.85
2018-11-05T21:40:11.687Z,32.98
2018-11-05T21:42:39.703Z,34.75
2018-11-05T21:45:09.182Z,28.38
2018-11-05T21:47:37.695Z,31.95
2018-11-05T21:50:08.801Z,34.10
2018-11-05T21:52:37.599Z,33.30
2018-11-05T21:55:06.351Z,33.20
2018-11-05T21:57:34.385Z,34.50
2018-11-05T22:00:02.751Z,37.83
2018-11-05T22:02:33.766Z,37.55
2018-11-05T22:05:01.739Z,30.82
2018-11-05T22:07:29.753Z,34.27
2018-11-05T22:09:57.714Z,35.83
2018-11-05T22:12:25.735Z,31.20
2018-11-05T22:14:53.700Z,32.90
2018-11-05T22:17:21.918Z,32.03
2018-11-05T22:19:49.878Z,36.88
2018-11-05T22:22:17.857Z,37.55
2018-11-05T22:24:45.818Z,32.98
2018-11-05T22:27:13.839Z,34.13
2018-11-05T22:29:41.758Z,38.38
2018-11-05T22:32:09.816Z,36.38
2018-11-05T22:34:37.734Z,36.53
2018-11-05T22:37:06.052Z,37.60
2018-11-05T22:39:34.046Z,37.28
2018-11-05T22:42:01.988Z,42.67
2018-11-05T22:44:30.001Z,35.23
2018-11-05T22:46:58.010Z,41.55
2018-11-05T22:49:25.930Z,38.85
2018-11-05T22:51:54.919Z,33.63
2018-11-05T22:54:23.034Z,37.90
2018-11-05T22:56:50.994Z,33.95
2018-11-05T22:59:19.035Z,35.35
2018-11-05T23:01:52.406Z,38.75
2018-11-05T23:04:20.396Z,38.35
2018-11-05T23:06:48.732Z,38.40
2018-11-05T23:09:17.736Z,33.67
2018-11-05T23:11:45.698Z,36.15
2018-11-05T23:14:13.639Z,35.85
2018-11-05T23:16:41.694Z,36.28
2018-11-05T23:19:09.730Z,38.50
2018-11-05T23:21:37.846Z,34.13
2018-11-05T23:24:06.046Z,45.17
2018-11-05T23:26:34.073Z,33.20
2018-11-05T23:29:02.116Z,36.88
2018-11-05T23:31:30.049Z,38.55
2018-11-05T23:33:58.069Z,36.58
2018-11-05T23:36:26.027Z,42.17
2018-11-05T23:38:54.031Z,37.63
2018-11-05T23:41:21.967Z,42.53
2018-11-05T23:43:50.029Z,34.43
2018-11-05T23:46:18.010Z,35.08
2018-11-05T23:48:45.960Z,37.42
2018-11-05T23:51:13.893Z,41.80
2018-11-05T23:53:41.869Z,34.85
2018-11-05T23:56:09.834Z,36.33
2018-11-05T23:58:37.786Z,36.90
